sensor_id;sensor_type;location;lat;lon;timestamp;P1;durP1;ratioP1;P2;durP2;ratioP2
38994;SDS011;24769;18.712;99.000;2023-05-10T00:00:23;40.80;;;36.20;;
38994;SDS011;24769;18.712;99.000;2023-05-10T00:02:50;35.80;;;33.40;;
38994;SDS011;24769;18.712;99.000;2023-05-10T00:05:17;35.20;;;33.00;;
38994;SDS011;24769;18.712;99.000;2023-05-10T00:07:44;36.00;;;33.20;;
38994;SDS011;24769;18.712;99.000;2023-05-10T00:10:10;31.60;;;30.80;;
38994;SDS011;24769;18.712;99.000;2023-05-10T00:12:37;39.40;;;35.60;;
38994;SDS011;24769;18.712;99.000;2023-05-10T00:15:04;41.00;;;36.20;;
38994;SDS011;24769;18.712;99.000;2023-05-10T00:17:31;43.00;;;36.80;;
38994;SDS011;24769;18.712;99.000;2023-05-10T00:19:58;38.40;;;35.00;;
38994;SDS011;24769;18.712;99.000;2023-05-10T00:22:24;39.20;;;35.40;;
38994;SDS011;24769;18.712;99.000;2023-05-10T00:24:51;37.60;;;34.60;;
38994;SDS011;24769;18.712;99.000;2023-05-10T00:27:17;36.80;;;33.80;;
38994;SDS011;24769;18.712;99.000;2023-05-10T00:29:44;34.20;;;32.20;;
38994;SDS011;24769;18.712;99.000;2023-05-10T00:32:10;35.40;;;33.00;;
38994;SDS011;24769;18.712;99.000;2023-05-10T00:34:39;39.20;;;35.20;;
38994;SDS011;24769;18.712;99.000;2023-05-10T00:37:05;45.00;;;38.60;;
38994;SDS011;24769;18.712;99.000;2023-05-10T00:39:32;42.20;;;36.80;;
38994;SDS011;24769;18.712;99.000;2023-05-10T00:41:59;41.40;;;36.40;;
38994;SDS011;24769;18.712;99.000;2023-05-10T00:44:25;39.80;;;35.80;;
38994;SDS011;24769;18.712;99.000;2023-05-10T00:46:52;41.40;;;36.20;;
38994;SDS011;24769;18.712;99.000;2023-05-10T00:49:19;32.00;;;30.00;;
38994;SDS011;24769;18.712;99.000;2023-05-10T00:51:46;28.80;;;28.60;;
38994;SDS011;24769;18.712;99.000;2023-05-10T00:54:14;31.40;;;30.40;;
38994;SDS011;24769;18.712;99.000;2023-05-10T00:56:41;28.00;;;28.00;;
38994;SDS011;24769;18.712;99.000;2023-05-10T00:59:14;32.80;;;31.40;;
38994;SDS011;24769;18.712;99.000;2023-05-10T01:01:44;26.00;;;26.00;;
38994;SDS011;24769;18.712;99.000;2023-05-10T01:04:12;26.40;;;26.40;;
38994;SDS011;24769;18.712;99.000;2023-05-10T01:06:39;23.20;;;23.20;;
38994;SDS011;24769;18.712;99.000;2023-05-10T01:09:07;26.40;;;26.40;;
38994;SDS011;24769;18.712;99.000;2023-05-10T01:11:36;20.00;;;20.00;;
38994;SDS011;24769;18.712;99.000;2023-05-10T01:14:05;25.20;;;25.20;;
38994;SDS011;24769;18.712;99.000;2023-05-10T01:16:33;21.40;;;21.40;;
38994;SDS011;24769;18.712;99.000;2023-05-10T01:19:08;22.40;;;22.40;;
38994;SDS011;24769;18.712;99.000;2023-05-10T01:24:38;20.00;;;20.00;;
38994;SDS011;24769;18.712;99.000;2023-05-10T01:27:17;21.80;;;21.80;;
38994;SDS011;24769;18.712;99.000;2023-05-10T01:35:32;24.00;;;22.80;;
38994;SDS011;24769;18.712;99.000;2023-05-10T01:38:51;25.20;;;25.20;;
38994;SDS011;24769;18.712;99.000;2023-05-10T01:41:18;21.00;;;21.00;;
38994;SDS011;24769;18.712;99.000;2023-05-10T01:44:18;27.60;;;27.60;;
38994;SDS011;24769;18.712;99.000;2023-05-10T01:47:06;19.80;;;19.80;;
38994;SDS011;24769;18.712;99.000;2023-05-10T01:49:42;23.20;;;23.20;;
38994;SDS011;24769;18.712;99.000;2023-05-10T01:52:14;16.40;;;16.40;;
38994;SDS011;24769;18.712;99.000;2023-05-10T01:54:46;23.80;;;23.80;;
38994;SDS011;24769;18.712;99.000;2023-05-10T01:57:19;22.40;;;22.40;;
38994;SDS011;24769;18.712;99.000;2023-05-10T01:59:51;23.00;;;23.00;;
38994;SDS011;24769;18.712;99.000;2023-05-10T02:02:20;21.60;;;21.60;;
38994;SDS011;24769;18.712;99.000;2023-05-10T02:04:49;27.20;;;27.20;;
38994;SDS011;24769;18.712;99.000;2023-05-10T02:07:16;22.20;;;22.20;;
38994;SDS011;24769;18.712;99.000;2023-05-10T02:09:44;26.40;;;26.40;;
38994;SDS011;24769;18.712;99.000;2023-05-10T02:12:14;23.40;;;23.40;;
38994;SDS011;24769;18.712;99.000;2023-05-10T02:14:43;24.60;;;24.60;;
38994;SDS011;24769;18.712;99.000;2023-05-10T02:17:11;27.40;;;27.40;;
38994;SDS011;24769;18.712;99.000;2023-05-10T02:19:40;28.40;;;27.60;;
38994;SDS011;24769;18.712;99.000;2023-05-10T02:22:09;19.40;;;19.40;;
38994;SDS011;24769;18.712;99.000;2023-05-10T02:24:36;27.00;;;27.00;;
38994;SDS011;24769;18.712;99.000;2023-05-10T02:27:04;24.20;;;24.20;;
38994;SDS011;24769;18.712;99.000;2023-05-10T02:29:31;25.40;;;25.40;;
38994;SDS011;24769;18.712;99.000;2023-05-10T02:31:59;25.60;;;25.60;;
38994;SDS011;24769;18.712;99.000;2023-05-10T02:34:27;26.60;;;26.60;;
38994;SDS011;24769;18.712;99.000;2023-05-10T02:36:55;25.00;;;25.00;;
38994;SDS011;24769;18.712;99.000;2023-05-10T02:39:23;27.20;;;27.20;;
38994;SDS011;24769;18.712;99.000;2023-05-10T02:41:53;27.00;;;27.00;;
38994;SDS011;24769;18.712;99.000;2023-05-10T02:44:21;27.60;;;27.40;;
38994;SDS011;24769;18.712;99.000;2023-05-10T02:46:50;22.40;;;22.40;;
38994;SDS011;24769;18.712;99.000;2023-05-10T02:49:17;20.60;;;20.60;;
38994;SDS011;24769;18.712;99.000;2023-05-10T02:51:46;24.60;;;24.60;;
38994;SDS011;24769;18.712;99.000;2023-05-10T02:54:18;23.40;;;23.40;;
38994;SDS011;24769;18.712;99.000;2023-05-10T02:56:51;26.00;;;26.00;;
38994;SDS011;24769;18.712;99.000;2023-05-10T02:59:22;27.00;;;27.00;;
38994;SDS011;24769;18.712;99.000;2023-05-10T03:01:49;24.40;;;24.40;;
38994;SDS011;24769;18.712;99.000;2023-05-10T03:04:16;25.20;;;25.20;;
38994;SDS011;24769;18.712;99.000;2023-05-10T03:06:42;24.00;;;24.00;;
38994;SDS011;24769;18.712;99.000;2023-05-10T03:09:10;24.00;;;24.00;;
38994;SDS011;24769;18.712;99.000;2023-05-10T03:17:08;25.40;;;25.40;;
38994;SDS011;24769;18.712;99.000;2023-05-10T03:19:47;22.00;;;22.00;;
38994;SDS011;24769;18.712;99.000;2023-05-10T03:22:31;27.20;;;27.20;;
38994;SDS011;24769;18.712;99.000;2023-05-10T03:25:11;22.80;;;22.80;;
38994;SDS011;24769;18.712;99.000;2023-05-10T03:30:08;26.40;;;26.40;;
38994;SDS011;24769;18.712;99.000;2023-05-10T03:32:37;21.80;;;21.80;;
38994;SDS011;24769;18.712;99.000;2023-05-10T03:35:07;27.80;;;27.80;;
38994;SDS011;24769;18.712;99.000;2023-05-10T03:37:34;22.60;;;22.60;;
38994;SDS011;24769;18.712;99.000;2023-05-10T03:40:01;26.00;;;26.00;;
38994;SDS011;24769;18.712;99.000;2023-05-10T03:42:28;28.20;;;28.20;;
38994;SDS011;24769;18.712;99.000;2023-05-10T03:44:55;24.40;;;24.40;;
38994;SDS011;24769;18.712;99.000;2023-05-10T03:47:21;27.60;;;27.60;;
38994;SDS011;24769;18.712;99.000;2023-05-10T03:49:48;30.60;;;29.60;;
38994;SDS011;24769;18.712;99.000;2023-05-10T03:52:14;28.20;;;28.20;;
38994;SDS011;24769;18.712;99.000;2023-05-10T03:54:41;24.40;;;24.40;;
38994;SDS011;24769;18.712;99.000;2023-05-10T03:57:08;25.40;;;25.40;;
38994;SDS011;24769;18.712;99.000;2023-05-10T03:59:35;22.00;;;22.00;;
38994;SDS011;24769;18.712;99.000;2023-05-10T04:02:01;25.80;;;25.80;;
38994;SDS011;24769;18.712;99.000;2023-05-10T04:04:28;26.00;;;26.00;;
38994;SDS011;24769;18.712;99.000;2023-05-10T04:06:54;24.00;;;24.00;;
38994;SDS011;24769;18.712;99.000;2023-05-10T04:09:21;23.20;;;23.20;;
38994;SDS011;24769;18.712;99.000;2023-05-10T04:11:48;23.00;;;23.00;;
38994;SDS011;24769;18.712;99.000;2023-05-10T04:14:14;24.40;;;23.40;;
38994;SDS011;24769;18.712;99.000;2023-05-10T04:16:41;23.60;;;23.60;;
38994;SDS011;24769;18.712;99.000;2023-05-10T04:19:08;26.40;;;26.40;;
38994;SDS011;24769;18.712;99.000;2023-05-10T04:21:35;20.60;;;20.60;;
38994;SDS011;24769;18.712;99.000;2023-05-10T04:24:02;22.20;;;22.20;;
38994;SDS011;24769;18.712;99.000;2023-05-10T04:26:29;22.00;;;22.00;;
38994;SDS011;24769;18.712;99.000;2023-05-10T04:28:56;21.20;;;21.20;;
38994;SDS011;24769;18.712;99.000;2023-05-10T04:31:23;26.20;;;26.20;;
38994;SDS011;24769;18.712;99.000;2023-05-10T04:33:49;23.40;;;23.40;;
38994;SDS011;24769;18.712;99.000;2023-05-10T04:36:16;26.20;;;26.20;;
38994;SDS011;24769;18.712;99.000;2023-05-10T04:38:42;26.80;;;26.80;;
38994;SDS011;24769;18.712;99.000;2023-05-10T04:41:09;24.20;;;24.20;;
38994;SDS011;24769;18.712;99.000;2023-05-10T04:43:36;21.20;;;21.20;;
38994;SDS011;24769;18.712;99.000;2023-05-10T04:46:04;22.60;;;22.60;;
38994;SDS011;24769;18.712;99.000;2023-05-10T04:48:31;26.00;;;26.00;;
38994;SDS011;24769;18.712;99.000;2023-05-10T04:50:58;30.00;;;28.20;;
38994;SDS011;24769;18.712;99.000;2023-05-10T04:53:25;28.60;;;28.40;;
38994;SDS011;24769;18.712;99.000;2023-05-10T04:55:52;26.80;;;26.80;;
38994;SDS011;24769;18.712;99.000;2023-05-10T04:58:18;23.60;;;23.60;;
38994;SDS011;24769;18.712;99.000;2023-05-10T05:00:45;26.60;;;25.80;;
38994;SDS011;24769;18.712;99.000;2023-05-10T05:03:11;25.00;;;24.80;;
38994;SDS011;24769;18.712;99.000;2023-05-10T05:05:38;24.40;;;24.40;;
38994;SDS011;24769;18.712;99.000;2023-05-10T05:08:04;27.60;;;27.20;;
38994;SDS011;24769;18.712;99.000;2023-05-10T05:10:31;25.60;;;25.60;;
38994;SDS011;24769;18.712;99.000;2023-05-10T05:12:58;26.00;;;26.00;;
38994;SDS011;24769;18.712;99.000;2023-05-10T05:15:24;26.80;;;26.80;;
38994;SDS011;24769;18.712;99.000;2023-05-10T05:17:51;26.40;;;26.40;;
38994;SDS011;24769;18.712;99.000;2023-05-10T05:20:18;28.00;;;28.00;;
38994;SDS011;24769;18.712;99.000;2023-05-10T05:22:44;27.20;;;27.20;;
38994;SDS011;24769;18.712;99.000;2023-05-10T05:25:11;23.40;;;23.40;;
38994;SDS011;24769;18.712;99.000;2023-05-10T05:27:38;26.40;;;26.40;;
38994;SDS011;24769;18.712;99.000;2023-05-10T05:30:04;23.80;;;23.80;;
38994;SDS011;24769;18.712;99.000;2023-05-10T05:32:32;26.60;;;26.60;;
38994;SDS011;24769;18.712;99.000;2023-05-10T05:34:58;24.80;;;24.80;;
38994;SDS011;24769;18.712;99.000;2023-05-10T05:37:25;26.40;;;26.40;;
38994;SDS011;24769;18.712;99.000;2023-05-10T05:39:52;27.00;;;27.00;;
38994;SDS011;24769;18.712;99.000;2023-05-10T05:42:20;28.00;;;27.60;;
38994;SDS011;24769;18.712;99.000;2023-05-10T05:44:46;28.60;;;28.20;;
38994;SDS011;24769;18.712;99.000;2023-05-10T05:47:13;28.60;;;28.20;;
38994;SDS011;24769;18.712;99.000;2023-05-10T05:49:42;27.00;;;26.80;;
38994;SDS011;24769;18.712;99.000;2023-05-10T05:52:11;27.80;;;27.80;;
38994;SDS011;24769;18.712;99.000;2023-05-10T05:54:38;29.60;;;29.00;;
38994;SDS011;24769;18.712;99.000;2023-05-10T05:57:05;28.20;;;28.00;;
38994;SDS011;24769;18.712;99.000;2023-05-10T05:59:31;29.80;;;29.00;;
38994;SDS011;24769;18.712;99.000;2023-05-10T06:01:58;29.00;;;28.80;;
38994;SDS011;24769;18.712;99.000;2023-05-10T06:04:25;28.40;;;28.20;;
38994;SDS011;24769;18.712;99.000;2023-05-10T06:06:52;28.40;;;28.40;;
38994;SDS011;24769;18.712;99.000;2023-05-10T06:09:18;28.80;;;28.80;;
38994;SDS011;24769;18.712;99.000;2023-05-10T06:11:45;29.60;;;28.80;;
38994;SDS011;24769;18.712;99.000;2023-05-10T06:14:12;33.00;;;31.20;;
38994;SDS011;24769;18.712;99.000;2023-05-10T06:16:38;34.20;;;31.00;;
38994;SDS011;24769;18.712;99.000;2023-05-10T06:19:05;26.00;;;26.00;;
38994;SDS011;24769;18.712;99.000;2023-05-10T06:21:32;32.80;;;31.00;;
38994;SDS011;24769;18.712;99.000;2023-05-10T06:23:59;31.60;;;30.40;;
38994;SDS011;24769;18.712;99.000;2023-05-10T06:26:25;31.80;;;30.60;;
38994;SDS011;24769;18.712;99.000;2023-05-10T06:28:52;30.40;;;29.40;;
38994;SDS011;24769;18.712;99.000;2023-05-10T06:31:18;24.40;;;24.40;;
38994;SDS011;24769;18.712;99.000;2023-05-10T06:33:45;31.00;;;30.00;;
38994;SDS011;24769;18.712;99.000;2023-05-10T06:36:12;32.60;;;31.00;;
38994;SDS011;24769;18.712;99.000;2023-05-10T06:38:38;29.80;;;29.20;;
38994;SDS011;24769;18.712;99.000;2023-05-10T06:41:05;32.00;;;30.80;;
38994;SDS011;24769;18.712;99.000;2023-05-10T06:43:31;35.40;;;32.20;;
38994;SDS011;24769;18.712;99.000;2023-05-10T06:45:58;32.40;;;30.80;;
38994;SDS011;24769;18.712;99.000;2023-05-10T06:48:25;33.00;;;31.20;;
38994;SDS011;24769;18.712;99.000;2023-05-10T06:50:51;32.00;;;30.60;;
38994;SDS011;24769;18.712;99.000;2023-05-10T06:53:18;33.00;;;31.00;;
38994;SDS011;24769;18.712;99.000;2023-05-10T06:55:44;36.40;;;33.20;;
38994;SDS011;24769;18.712;99.000;2023-05-10T06:58:11;32.00;;;31.00;;
38994;SDS011;24769;18.712;99.000;2023-05-10T07:00:38;32.80;;;31.20;;
38994;SDS011;24769;18.712;99.000;2023-05-10T07:03:05;34.00;;;31.60;;
38994;SDS011;24769;18.712;99.000;2023-05-10T07:05:32;38.00;;;34.20;;
38994;SDS011;24769;18.712;99.000;2023-05-10T07:07:59;36.40;;;33.20;;
38994;SDS011;24769;18.712;99.000;2023-05-10T07:10:26;37.40;;;33.80;;
38994;SDS011;24769;18.712;99.000;2023-05-10T07:12:52;39.40;;;34.80;;
38994;SDS011;24769;18.712;99.000;2023-05-10T07:15:19;35.40;;;32.40;;
38994;SDS011;24769;18.712;99.000;2023-05-10T07:17:46;35.00;;;32.00;;
38994;SDS011;24769;18.712;99.000;2023-05-10T07:20:12;38.20;;;34.20;;
38994;SDS011;24769;18.712;99.000;2023-05-10T07:22:39;36.60;;;33.00;;
38994;SDS011;24769;18.712;99.000;2023-05-10T07:25:06;36.20;;;33.00;;
38994;SDS011;24769;18.712;99.000;2023-05-10T07:27:33;39.40;;;34.80;;
38994;SDS011;24769;18.712;99.000;2023-05-10T07:29:59;36.00;;;33.00;;
38994;SDS011;24769;18.712;99.000;2023-05-10T07:32:26;38.20;;;34.00;;
38994;SDS011;24769;18.712;99.000;2023-05-10T07:34:53;38.20;;;34.20;;
38994;SDS011;24769;18.712;99.000;2023-05-10T07:37:19;34.20;;;31.60;;
38994;SDS011;24769;18.712;99.000;2023-05-10T07:39:46;33.60;;;31.40;;
38994;SDS011;24769;18.712;99.000;2023-05-10T07:42:13;39.60;;;35.00;;
38994;SDS011;24769;18.712;99.000;2023-05-10T07:44:39;37.20;;;33.80;;
38994;SDS011;24769;18.712;99.000;2023-05-10T07:47:07;36.00;;;32.80;;
38994;SDS011;24769;18.712;99.000;2023-05-10T07:49:33;32.80;;;31.00;;
38994;SDS011;24769;18.712;99.000;2023-05-10T07:52:02;34.20;;;31.40;;
38994;SDS011;24769;18.712;99.000;2023-05-10T07:54:29;29.60;;;29.20;;
38994;SDS011;24769;18.712;99.000;2023-05-10T07:56:55;32.40;;;30.80;;
38994;SDS011;24769;18.712;99.000;2023-05-10T07:59:22;33.20;;;31.20;;
38994;SDS011;24769;18.712;99.000;2023-05-10T08:01:49;31.20;;;30.20;;
38994;SDS011;24769;18.712;99.000;2023-05-10T08:04:15;32.40;;;30.80;;
38994;SDS011;24769;18.712;99.000;2023-05-10T08:06:42;29.60;;;29.00;;
38994;SDS011;24769;18.712;99.000;2023-05-10T08:09:08;29.60;;;29.00;;
38994;SDS011;24769;18.712;99.000;2023-05-10T08:11:36;22.00;;;22.00;;
38994;SDS011;24769;18.712;99.000;2023-05-10T08:14:02;28.80;;;28.60;;
38994;SDS011;24769;18.712;99.000;2023-05-10T08:16:29;31.60;;;30.40;;
38994;SDS011;24769;18.712;99.000;2023-05-10T08:18:55;35.40;;;32.40;;
38994;SDS011;24769;18.712;99.000;2023-05-10T08:21:22;30.60;;;29.60;;
38994;SDS011;24769;18.712;99.000;2023-05-10T08:23:49;30.40;;;29.40;;
38994;SDS011;24769;18.712;99.000;2023-05-10T08:26:15;26.00;;;26.00;;
38994;SDS011;24769;18.712;99.000;2023-05-10T08:28:42;31.80;;;30.60;;
38994;SDS011;24769;18.712;99.000;2023-05-10T08:31:09;32.40;;;31.00;;
38994;SDS011;24769;18.712;99.000;2023-05-10T08:33:35;31.40;;;30.40;;
38994;SDS011;24769;18.712;99.000;2023-05-10T08:36:02;30.80;;;30.20;;
38994;SDS011;24769;18.712;99.000;2023-05-10T08:38:28;30.00;;;29.40;;
38994;SDS011;24769;18.712;99.000;2023-05-10T08:40:55;31.20;;;30.20;;
38994;SDS011;24769;18.712;99.000;2023-05-10T08:43:22;34.40;;;32.00;;
38994;SDS011;24769;18.712;99.000;2023-05-10T08:45:55;32.40;;;30.80;;
38994;SDS011;24769;18.712;99.000;2023-05-10T08:48:25;35.60;;;32.80;;
38994;SDS011;24769;18.712;99.000;2023-05-10T08:50:55;30.60;;;29.60;;
38994;SDS011;24769;18.712;99.000;2023-05-10T08:53:26;32.00;;;30.80;;
38994;SDS011;24769;18.712;99.000;2023-05-10T08:55:56;31.40;;;30.40;;
38994;SDS011;24769;18.712;99.000;2023-05-10T08:58:23;29.20;;;29.00;;
38994;SDS011;24769;18.712;99.000;2023-05-10T09:00:51;30.20;;;29.20;;
38994;SDS011;24769;18.712;99.000;2023-05-10T09:03:19;32.60;;;31.00;;
38994;SDS011;24769;18.712;99.000;2023-05-10T09:05:45;35.00;;;32.20;;
38994;SDS011;24769;18.712;99.000;2023-05-10T09:08:13;26.80;;;26.80;;
38994;SDS011;24769;18.712;99.000;2023-05-10T09:10:42;33.20;;;31.20;;
38994;SDS011;24769;18.712;99.000;2023-05-10T09:13:12;31.60;;;30.60;;
38994;SDS011;24769;18.712;99.000;2023-05-10T09:15:40;33.20;;;31.20;;
38994;SDS011;24769;18.712;99.000;2023-05-10T09:18:09;32.40;;;31.00;;
38994;SDS011;24769;18.712;99.000;2023-05-10T09:20:35;30.20;;;29.20;;
38994;SDS011;24769;18.712;99.000;2023-05-10T09:23:02;32.80;;;31.00;;
38994;SDS011;24769;18.712;99.000;2023-05-10T09:25:29;31.20;;;29.60;;
38994;SDS011;24769;18.712;99.000;2023-05-10T09:27:58;30.40;;;29.40;;
38994;SDS011;24769;18.712;99.000;2023-05-10T09:30:29;34.60;;;32.20;;
38994;SDS011;24769;18.712;99.000;2023-05-10T09:32:57;34.60;;;31.80;;
38994;SDS011;24769;18.712;99.000;2023-05-10T09:35:25;30.20;;;29.60;;
38994;SDS011;24769;18.712;99.000;2023-05-10T09:38:00;33.00;;;31.00;;
38994;SDS011;24769;18.712;99.000;2023-05-10T09:40:29;30.20;;;29.20;;
38994;SDS011;24769;18.712;99.000;2023-05-10T09:43:03;36.60;;;33.20;;
38994;SDS011;24769;18.712;99.000;2023-05-10T09:45:34;34.00;;;31.80;;
38994;SDS011;24769;18.712;99.000;2023-05-10T09:48:01;33.20;;;31.00;;
38994;SDS011;24769;18.712;99.000;2023-05-10T09:50:29;36.40;;;33.00;;
38994;SDS011;24769;18.712;99.000;2023-05-10T09:53:00;30.60;;;29.60;;
38994;SDS011;24769;18.712;99.000;2023-05-10T09:58:11;33.60;;;31.60;;
38994;SDS011;24769;18.712;99.000;2023-05-10T10:00:43;32.20;;;31.00;;
38994;SDS011;24769;18.712;99.000;2023-05-10T10:03:16;32.00;;;30.80;;
38994;SDS011;24769;18.712;99.000;2023-05-10T10:05:44;28.20;;;28.20;;
38994;SDS011;24769;18.712;99.000;2023-05-10T10:08:12;31.20;;;30.20;;
38994;SDS011;24769;18.712;99.000;2023-05-10T10:10:39;31.20;;;30.20;;
38994;SDS011;24769;18.712;99.000;2023-05-10T10:13:07;30.80;;;29.80;;
38994;SDS011;24769;18.712;99.000;2023-05-10T10:15:34;27.40;;;27.40;;
38994;SDS011;24769;18.712;99.000;2023-05-10T10:18:01;28.20;;;28.20;;
38994;SDS011;24769;18.712;99.000;2023-05-10T10:20:29;31.20;;;30.20;;
38994;SDS011;24769;18.712;99.000;2023-05-10T10:22:55;30.80;;;30.00;;
38994;SDS011;24769;18.712;99.000;2023-05-10T10:25:22;27.60;;;27.60;;
38994;SDS011;24769;18.712;99.000;2023-05-10T10:35:54;30.20;;;29.40;;
38994;SDS011;24769;18.712;99.000;2023-05-10T10:38:24;28.00;;;28.00;;
38994;SDS011;24769;18.712;99.000;2023-05-10T10:41:08;26.80;;;26.80;;
38994;SDS011;24769;18.712;99.000;2023-05-10T10:43:37;29.60;;;29.20;;
38994;SDS011;24769;18.712;99.000;2023-05-10T10:46:16;32.00;;;30.60;;
38994;SDS011;24769;18.712;99.000;2023-05-10T10:48:48;21.60;;;21.60;;
38994;SDS011;24769;18.712;99.000;2023-05-10T10:51:37;31.40;;;30.40;;
38994;SDS011;24769;18.712;99.000;2023-05-10T10:54:18;32.20;;;31.00;;
38994;SDS011;24769;18.712;99.000;2023-05-10T10:57:13;29.40;;;29.00;;
38994;SDS011;24769;18.712;99.000;2023-05-10T10:59:43;32.60;;;31.20;;
38994;SDS011;24769;18.712;99.000;2023-05-10T11:08:07;31.80;;;30.60;;
38994;SDS011;24769;18.712;99.000;2023-05-10T11:10:37;30.00;;;29.20;;
38994;SDS011;24769;18.712;99.000;2023-05-10T11:13:10;31.60;;;30.60;;
38994;SDS011;24769;18.712;99.000;2023-05-10T11:15:40;32.00;;;30.60;;
38994;SDS011;24769;18.712;99.000;2023-05-10T11:18:18;31.20;;;30.20;;
38994;SDS011;24769;18.712;99.000;2023-05-10T11:20:52;33.80;;;31.80;;
38994;SDS011;24769;18.712;99.000;2023-05-10T11:23:31;27.40;;;27.40;;
38994;SDS011;24769;18.712;99.000;2023-05-10T11:26:13;30.20;;;29.60;;
38994;SDS011;24769;18.712;99.000;2023-05-10T11:28:43;32.80;;;31.40;;
38994;SDS011;24769;18.712;99.000;2023-05-10T11:31:13;32.60;;;31.40;;
38994;SDS011;24769;18.712;99.000;2023-05-10T11:33:48;32.80;;;31.00;;
38994;SDS011;24769;18.712;99.000;2023-05-10T11:36:16;30.60;;;30.00;;
38994;SDS011;24769;18.712;99.000;2023-05-10T11:38:44;31.20;;;30.20;;
38994;SDS011;24769;18.712;99.000;2023-05-10T11:41:12;36.20;;;33.00;;
38994;SDS011;24769;18.712;99.000;2023-05-10T11:43:39;32.20;;;31.20;;
38994;SDS011;24769;18.712;99.000;2023-05-10T11:46:07;36.20;;;33.40;;
38994;SDS011;24769;18.712;99.000;2023-05-10T11:48:36;34.00;;;32.20;;
38994;SDS011;24769;18.712;99.000;2023-05-10T11:51:06;38.00;;;33.40;;
38994;SDS011;24769;18.712;99.000;2023-05-10T11:53:34;35.20;;;32.80;;
38994;SDS011;24769;18.712;99.000;2023-05-10T11:56:04;30.60;;;30.00;;
38994;SDS011;24769;18.712;99.000;2023-05-10T11:58:36;29.00;;;29.00;;
38994;SDS011;24769;18.712;99.000;2023-05-10T12:01:05;32.60;;;31.60;;
38994;SDS011;24769;18.712;99.000;2023-05-10T12:03:33;33.80;;;31.80;;
38994;SDS011;24769;18.712;99.000;2023-05-10T12:06:01;40.20;;;35.60;;
38994;SDS011;24769;18.712;99.000;2023-05-10T12:08:29;37.20;;;34.20;;
38994;SDS011;24769;18.712;99.000;2023-05-10T12:11:06;33.80;;;32.00;;
38994;SDS011;24769;18.712;99.000;2023-05-10T12:13:39;38.60;;;34.60;;
38994;SDS011;24769;18.712;99.000;2023-05-10T12:16:23;36.80;;;33.80;;
38994;SDS011;24769;18.712;99.000;2023-05-10T12:18:51;41.00;;;36.00;;
38994;SDS011;24769;18.712;99.000;2023-05-10T12:21:20;38.20;;;35.00;;
38994;SDS011;24769;18.712;99.000;2023-05-10T12:23:51;39.60;;;35.60;;
38994;SDS011;24769;18.712;99.000;2023-05-10T12:26:23;40.40;;;36.00;;
38994;SDS011;24769;18.712;99.000;2023-05-10T12:28:52;37.40;;;34.40;;
38994;SDS011;24769;18.712;99.000;2023-05-10T12:31:19;37.60;;;34.60;;
38994;SDS011;24769;18.712;99.000;2023-05-10T12:33:46;38.60;;;35.20;;
38994;SDS011;24769;18.712;99.000;2023-05-10T12:36:14;36.60;;;33.60;;
38994;SDS011;24769;18.712;99.000;2023-05-10T12:38:44;39.00;;;35.00;;
38994;SDS011;24769;18.712;99.000;2023-05-10T12:41:16;40.00;;;36.00;;
38994;SDS011;24769;18.712;99.000;2023-05-10T12:43:44;42.40;;;37.40;;
38994;SDS011;24769;18.712;99.000;2023-05-10T12:46:12;41.80;;;36.00;;
38994;SDS011;24769;18.712;99.000;2023-05-10T12:48:41;44.00;;;38.40;;
38994;SDS011;24769;18.712;99.000;2023-05-10T12:51:08;45.80;;;39.80;;
38994;SDS011;24769;18.712;99.000;2023-05-10T12:53:37;43.20;;;37.60;;
38994;SDS011;24769;18.712;99.000;2023-05-10T12:56:04;44.80;;;39.00;;
38994;SDS011;24769;18.712;99.000;2023-05-10T12:58:31;43.20;;;37.80;;
38994;SDS011;24769;18.712;99.000;2023-05-10T13:00:58;40.60;;;36.00;;
38994;SDS011;24769;18.712;99.000;2023-05-10T13:03:25;40.00;;;36.00;;
38994;SDS011;24769;18.712;99.000;2023-05-10T13:05:52;38.20;;;35.00;;
38994;SDS011;24769;18.712;99.000;2023-05-10T13:08:18;43.20;;;37.80;;
38994;SDS011;24769;18.712;99.000;2023-05-10T13:10:45;42.20;;;36.80;;
38994;SDS011;24769;18.712;99.000;2023-05-10T13:13:12;36.20;;;33.20;;
38994;SDS011;24769;18.712;99.000;2023-05-10T13:15:38;46.20;;;39.20;;
38994;SDS011;24769;18.712;99.000;2023-05-10T13:18:05;39.20;;;35.00;;
38994;SDS011;24769;18.712;99.000;2023-05-10T13:20:31;42.60;;;37.40;;
38994;SDS011;24769;18.712;99.000;2023-05-10T13:22:58;37.40;;;34.40;;
38994;SDS011;24769;18.712;99.000;2023-05-10T13:25:25;36.80;;;33.20;;
38994;SDS011;24769;18.712;99.000;2023-05-10T13:27:51;45.40;;;39.40;;
38994;SDS011;24769;18.712;99.000;2023-05-10T13:30:18;43.80;;;38.00;;
38994;SDS011;24769;18.712;99.000;2023-05-10T13:32:45;44.80;;;38.80;;
38994;SDS011;24769;18.712;99.000;2023-05-10T13:35:12;43.40;;;37.80;;
38994;SDS011;24769;18.712;99.000;2023-05-10T13:37:38;37.40;;;34.40;;
38994;SDS011;24769;18.712;99.000;2023-05-10T13:40:05;40.60;;;36.00;;
38994;SDS011;24769;18.712;99.000;2023-05-10T13:42:32;36.60;;;33.60;;
38994;SDS011;24769;18.712;99.000;2023-05-10T13:44:59;39.20;;;35.00;;
38994;SDS011;24769;18.712;99.000;2023-05-10T13:47:27;39.40;;;34.80;;
38994;SDS011;24769;18.712;99.000;2023-05-10T13:49:54;38.20;;;35.00;;
38994;SDS011;24769;18.712;99.000;2023-05-10T13:52:21;38.20;;;34.80;;
38994;SDS011;24769;18.712;99.000;2023-05-10T13:54:47;37.80;;;34.40;;
38994;SDS011;24769;18.712;99.000;2023-05-10T13:57:14;42.00;;;36.20;;
38994;SDS011;24769;18.712;99.000;2023-05-10T13:59:42;41.00;;;35.60;;
38994;SDS011;24769;18.712;99.000;2023-05-10T14:02:08;41.60;;;36.80;;
38994;SDS011;24769;18.712;99.000;2023-05-10T14:04:37;40.20;;;35.60;;
38994;SDS011;24769;18.712;99.000;2023-05-10T14:07:04;36.80;;;33.80;;
38994;SDS011;24769;18.712;99.000;2023-05-10T14:09:31;39.60;;;34.60;;
38994;SDS011;24769;18.712;99.000;2023-05-10T14:11:57;35.80;;;33.40;;
38994;SDS011;24769;18.712;99.000;2023-05-10T14:14:24;34.60;;;32.40;;
38994;SDS011;24769;18.712;99.000;2023-05-10T14:16:51;36.60;;;33.60;;
38994;SDS011;24769;18.712;99.000;2023-05-10T14:19:17;33.00;;;31.80;;
38994;SDS011;24769;18.712;99.000;2023-05-10T14:21:44;32.40;;;31.00;;
38994;SDS011;24769;18.712;99.000;2023-05-10T14:24:11;37.20;;;34.20;;
38994;SDS011;24769;18.712;99.000;2023-05-10T14:26:37;33.20;;;32.00;;
38994;SDS011;24769;18.712;99.000;2023-05-10T14:29:04;39.00;;;35.20;;
38994;SDS011;24769;18.712;99.000;2023-05-10T14:31:30;38.00;;;34.60;;
38994;SDS011;24769;18.712;99.000;2023-05-10T14:33:57;37.60;;;34.40;;
38994;SDS011;24769;18.712;99.000;2023-05-10T14:36:24;36.60;;;33.60;;
38994;SDS011;24769;18.712;99.000;2023-05-10T14:38:50;36.00;;;33.20;;
38994;SDS011;24769;18.712;99.000;2023-05-10T14:41:17;35.20;;;33.00;;
38994;SDS011;24769;18.712;99.000;2023-05-10T14:43:44;37.40;;;34.40;;
38994;SDS011;24769;18.712;99.000;2023-05-10T14:46:11;41.00;;;36.20;;
38994;SDS011;24769;18.712;99.000;2023-05-10T14:48:37;40.60;;;35.60;;